Time;durP1;ratioP1;P1;durP2;ratioP2;P2;SDS_P1;SDS_P2;PMS_P1;PMS_P2;Temp;Humidity;BMP_temperature;BMP_pressure;BME280_temperature;BME280_humidity;BME280_pressure;Samples;Min_cycle;Max_cycle;Signal;HPM_P1;HPM_P2
2022/09/29 00:01:37;;;;;;;5.50;4.85;;;19.80;98.70;;;;;;10133699;29;20256;-81
2022/09/29 00:06:39;;;;;;;7.10;5.75;;;19.80;98.70;;;;;;10133245;29;20254;-81
2022/09/29 00:11:42;;;;;;;5.50;5.00;;;19.80;98.60;;;;;;10116338;29;20341;-81
2022/09/29 00:16:45;;;;;;;5.55;5.03;;;19.80;98.60;;;;;;10131154;29;20674;-81
2022/09/29 00:21:47;;;;;;;6.53;5.30;;;19.80;98.50;;;;;;10114835;29;20272;-81
2022/09/29 00:26:50;;;;;;;6.00;5.40;;;19.80;98.60;;;;;;10114449;29;20272;-81
2022/09/29 00:31:53;;;;;;;6.25;5.25;;;19.80;98.50;;;;;;10114964;29;20264;-81
2022/09/29 00:36:55;;;;;;;7.05;5.68;;;19.80;98.50;;;;;;10132683;29;20236;-82
2022/09/29 00:41:58;;;;;;;6.53;5.03;;;19.80;98.50;;;;;;10116222;29;20249;-81
2022/09/29 00:47:03;;;;;;;6.38;5.78;;;19.70;98.50;;;;;;10091382;29;20641;-81
2022/09/29 00:52:11;;;;;;;5.75;4.95;;;19.80;98.40;;;;;;10093287;29;20253;-81
2022/09/29 00:57:18;;;;;;;6.03;4.70;;;19.80;98.40;;;;;;10053288;29;20233;-81
2022/09/29 01:02:22;;;;;;;5.70;5.20;;;19.80;98.40;;;;;;10086533;29;20612;-81
2022/09/29 01:07:26;;;;;;;4.82;4.32;;;19.80;98.30;;;;;;10092646;29;20672;-81
2022/09/29 01:12:29;;;;;;;5.47;4.40;;;19.80;98.30;;;;;;10091619;29;20716;-81
2022/09/29 01:17:31;;;;;;;5.88;5.20;;;19.70;98.40;;;;;;10089562;29;20261;-81
2022/09/29 01:23:11;;;;;;;5.68;4.90;;;19.70;98.40;;;;;;10091538;29;20236;-81
2022/09/29 01:29:06;;;;;;;4.82;4.32;;;19.70;98.30;;;;;;10073506;29;20681;-81
2022/09/29 01:34:15;;;;;;;6.03;4.70;;;19.80;98.30;;;;;;10073729;29;20240;-81
2022/09/29 01:39:30;;;;;;;5.70;4.60;;;19.80;98.30;;;;;;10091009;29;20737;-81
2022/09/29 01:45:11;;;;;;;5.80;5.00;;;19.80;98.20;;;;;;10125046;29;20639;-81
2022/09/29 01:50:24;;;;;;;5.30;4.57;;;19.80;98.20;;;;;;10112398;29;20268;-81
2022/09/29 01:55:30;;;;;;;6.18;4.75;;;19.80;98.20;;;;;;10111432;29;20256;-81
2022/09/29 02:00:40;;;;;;;5.45;4.88;;;19.80;98.20;;;;;;10109971;29;20236;-81
2022/09/29 02:05:55;;;;;;;4.97;4.43;;;19.80;98.10;;;;;;10111496;29;20774;-81
2022/09/29 02:11:07;;;;;;;4.45;3.85;;;19.70;98.10;;;;;;10128580;29;20629;-81
2022/09/29 02:16:13;;;;;;;4.72;4.32;;;19.80;98.10;;;;;;10128716;29;20264;-81
2022/09/29 02:21:15;;;;;;;5.35;4.53;;;19.80;98.10;;;;;;10128190;29;20315;-81
2022/09/29 02:26:19;;;;;;;5.10;4.60;;;19.70;98.10;;;;;;10112471;29;20696;-81
2022/09/29 02:31:22;;;;;;;7.10;4.93;;;19.70;98.20;;;;;;10072824;29;20312;-81
2022/09/29 02:36:45;;;;;;;6.00;4.85;;;19.70;98.10;;;;;;10122316;29;20236;-81
2022/09/29 02:42:00;;;;;;;6.15;4.78;;;19.70;98.20;;;;;;10090255;29;20276;-81
2022/09/29 02:47:17;;;;;;;4.60;4.13;;;19.70;98.10;;;;;;10097278;29;20300;-81
2022/09/29 02:52:45;;;;;;;5.57;5.07;;;19.70;98.10;;;;;;10098852;29;20723;-81
2022/09/29 02:57:58;;;;;;;4.75;4.35;;;19.70;98.10;;;;;;10121680;29;20236;-81
2022/09/29 03:03:00;;;;;;;7.47;5.63;;;19.70;98.10;;;;;;10132416;29;20240;-81
2022/09/29 03:08:03;;;;;;;5.60;4.70;;;19.70;98.10;;;;;;10115812;29;20711;-81
2022/09/29 03:13:05;;;;;;;6.05;5.45;;;19.70;98.10;;;;;;10113080;29;20256;-81
2022/09/29 03:18:08;;;;;;;5.68;5.15;;;19.70;97.90;;;;;;10112348;29;20236;-81
2022/09/29 03:23:11;;;;;;;6.40;4.82;;;19.70;97.90;;;;;;10104122;29;20248;-81
2022/09/29 03:28:15;;;;;;;6.15;5.38;;;19.70;98.10;;;;;;10107101;29;20307;-81
2022/09/29 03:33:17;;;;;;;8.73;7.07;;;19.60;98.10;;;;;;10116427;29;20657;-81
2022/09/29 03:38:20;;;;;;;7.13;5.45;;;19.60;97.20;;;;;;10082126;29;20256;-81
2022/09/29 03:43:22;;;;;;;5.63;5.00;;;19.50;98.40;;;;;;10099431;29;20646;-82
2022/09/29 03:48:29;;;;;;;5.40;4.90;;;19.60;98.10;;;;;;10115952;29;20235;-81
2022/09/29 03:53:36;;;;;;;5.78;5.03;;;19.70;97.70;;;;;;10131395;29;20259;-81
2022/09/29 03:58:38;;;;;;;5.63;4.93;;;19.70;98.00;;;;;;10114470;29;20255;-81
2022/09/29 04:03:41;;;;;;;5.40;4.78;;;19.60;98.00;;;;;;10132234;29;20688;-82
2022/09/29 04:08:43;;;;;;;6.15;5.63;;;19.70;97.90;;;;;;10114719;29;20248;-81
2022/09/29 04:13:46;;;;;;;5.50;5.00;;;19.70;97.90;;;;;;10130514;29;20271;-81
2022/09/29 04:18:48;;;;;;;5.55;5.05;;;19.60;97.90;;;;;;10165545;29;20223;-81
2022/09/29 04:23:51;;;;;;;5.18;4.68;;;19.70;97.80;;;;;;10123300;29;20232;-81
2022/09/29 04:28:55;;;;;;;7.90;5.68;;;19.70;97.80;;;;;;10131008;29;20236;-81
2022/09/29 04:33:57;;;;;;;5.68;5.18;;;19.70;98.00;;;;;;10132289;29;20263;-81
2022/09/29 04:38:59;;;;;;;5.10;4.70;;;19.60;98.00;;;;;;10131230;29;20236;-81
2022/09/29 04:44:02;;;;;;;6.43;5.72;;;19.60;97.90;;;;;;10098277;29;20293;-81
2022/09/29 04:49:04;;;;;;;4.13;3.78;;;19.60;97.90;;;;;;10101896;29;20240;-81
2022/09/29 04:54:08;;;;;;;6.03;5.43;;;19.50;98.10;;;;;;10083677;29;20716;-81
2022/09/29 04:59:11;;;;;;;6.63;5.47;;;19.30;98.40;;;;;;10056833;29;20259;-81
2022/09/29 05:04:14;;;;;;;4.80;4.40;;;19.40;98.40;;;;;;10070358;29;20278;-81
2022/09/29 05:09:17;;;;;;;5.60;4.97;;;19.50;98.10;;;;;;10075059;29;20241;-81
2022/09/29 05:14:25;;;;;;;6.18;5.57;;;19.50;98.00;;;;;;10054376;29;20253;-81
2022/09/29 05:19:28;;;;;;;5.35;4.85;;;19.60;97.90;;;;;;10074582;29;20286;-81
2022/09/29 05:24:31;;;;;;;5.60;5.00;;;19.60;97.70;;;;;;10079993;29;20241;-80
2022/09/29 05:29:33;;;;;;;5.83;5.27;;;19.60;97.60;;;;;;10088459;29;20696;-81
2022/09/29 05:34:36;;;;;;;6.27;5.43;;;19.60;97.70;;;;;;10090709;29;20264;-81
2022/09/29 05:39:38;;;;;;;5.23;4.73;;;19.50;97.80;;;;;;10075212;29;20281;-81
2022/09/29 05:44:41;;;;;;;6.70;6.07;;;19.50;97.60;;;;;;10120164;29;20302;-82
2022/09/29 05:49:43;;;;;;;5.72;4.60;;;19.50;97.20;;;;;;10092915;29;20696;-81
2022/09/29 05:54:49;;;;;;;5.25;4.75;;;19.70;97.10;;;;;;10115094;29;20853;-81
2022/09/29 05:59:52;;;;;;;5.65;5.13;;;19.70;96.90;;;;;;10107230;29;20271;-81
2022/09/29 06:04:54;;;;;;;5.18;4.55;;;19.70;96.80;;;;;;10127748;29;20268;-82
2022/09/29 06:09:57;;;;;;;4.93;4.53;;;19.70;96.70;;;;;;10096635;29;20247;-82
2022/09/29 06:14:59;;;;;;;4.30;3.90;;;19.80;96.60;;;;;;10128861;29;20387;-82
2022/09/29 06:20:03;;;;;;;5.40;4.53;;;19.70;96.60;;;;;;10133650;29;20287;-82
2022/09/29 06:25:06;;;;;;;5.85;5.25;;;19.70;96.70;;;;;;10135900;29;20248;-82
2022/09/29 06:30:11;;;;;;;5.78;5.28;;;19.70;96.60;;;;;;10136196;29;20303;-82
2022/09/29 06:40:35;;;;;;;8.40;6.27;;;18.60;95.20;;;;;;10148592;29;20274;-84
2022/09/29 06:45:41;;;;;;;6.33;5.73;;;19.00;94.40;;;;;;10137678;29;20291;-83
2022/09/29 06:50:45;;;;;;;12.60;7.03;;;19.20;93.60;;;;;;10141658;29;20639;-82
2022/09/29 06:55:59;;;;;;;6.40;5.80;;;19.30;92.80;;;;;;10127992;29;20256;-82
2022/09/29 07:01:04;;;;;;;6.75;5.15;;;19.40;92.90;;;;;;10133331;29;20232;-82
2022/09/29 07:06:09;;;;;;;7.63;6.20;;;19.50;92.70;;;;;;10112203;29;20235;-80
2022/09/29 07:11:27;;;;;;;5.67;5.07;;;19.50;92.60;;;;;;10117149;29;20275;-80
2022/09/29 07:16:30;;;;;;;5.00;4.53;;;19.60;92.90;;;;;;10134231;29;20259;-80
2022/09/29 07:21:33;;;;;;;6.35;5.70;;;19.70;92.50;;;;;;10124529;29;20260;-81
2022/09/29 07:26:36;;;;;;;5.90;5.32;;;19.80;92.10;;;;;;10138830;29;20235;-80
2022/09/29 07:31:39;;;;;;;5.85;5.00;;;19.90;91.90;;;;;;10115598;29;20236;-80
2022/09/29 07:36:52;;;;;;;6.20;5.63;;;19.90;91.80;;;;;;10134247;29;20311;-80
2022/09/29 07:41:55;;;;;;;5.15;4.65;;;19.90;91.90;;;;;;10138997;29;20260;-81
2022/09/29 07:47:30;;;;;;;6.13;4.75;;;19.80;92.00;;;;;;10123084;29;20240;-80
2022/09/29 07:52:32;;;;;;;6.95;6.03;;;19.90;92.10;;;;;;10139126;29;20244;-80
2022/09/29 07:57:34;;;;;;;6.57;5.60;;;19.80;92.20;;;;;;10122416;29;20652;-80
2022/09/29 08:02:37;;;;;;;6.13;5.22;;;19.80;92.30;;;;;;10135890;29;20637;-81
2022/09/29 08:07:39;;;;;;;5.97;5.47;;;19.90;92.40;;;;;;10118126;29;20232;-80
2022/09/29 08:12:42;;;;;;;7.45;5.50;;;19.90;92.30;;;;;;10135363;29;20287;-78
2022/09/29 08:17:52;;;;;;;5.75;4.85;;;19.90;92.40;;;;;;10132788;29;20240;-80
2022/09/29 08:23:03;;;;;;;5.90;5.30;;;19.90;92.50;;;;;;10115721;29;20636;-79
2022/09/29 08:28:06;;;;;;;5.13;4.72;;;19.90;92.40;;;;;;10113646;29;20672;-80
2022/09/29 08:33:13;;;;;;;5.95;5.35;;;20.00;92.30;;;;;;10127258;29;20311;-79
2022/09/29 08:38:15;;;;;;;7.35;5.18;;;20.00;92.30;;;;;;10120296;29;20228;-79
2022/09/29 08:43:32;;;;;;;5.45;4.47;;;20.00;92.30;;;;;;10128641;29;20271;-79
2022/09/29 08:48:42;;;;;;;9.52;5.00;;;20.00;92.40;;;;;;10134081;29;20298;-79
2022/09/29 08:54:05;;;;;;;5.10;4.55;;;20.00;92.40;;;;;;10152834;29;20302;-80
2022/09/29 08:59:10;;;;;;;5.50;5.00;;;20.00;92.40;;;;;;10144317;29;20660;-80
2022/09/29 09:04:38;;;;;;;4.57;4.18;;;20.10;92.20;;;;;;10118962;29;20675;-80
2022/09/29 09:10:08;;;;;;;5.70;4.97;;;20.00;92.50;;;;;;10023097;29;20269;-80
2022/09/29 09:15:23;;;;;;;5.13;4.63;;;20.00;92.40;;;;;;10015516;29;20314;-81
2022/09/29 09:20:35;;;;;;;6.80;5.53;;;20.00;92.40;;;;;;10013308;29;20282;-80
2022/09/29 09:25:45;;;;;;;4.75;4.35;;;20.10;92.30;;;;;;10016284;29;20662;-80
2022/09/29 09:31:02;;;;;;;4.97;4.47;;;20.10;92.10;;;;;;10017949;29;20312;-80
2022/09/29 09:36:24;;;;;;;6.20;5.60;;;20.10;92.20;;;;;;10011308;29;20347;-80
2022/09/29 09:41:37;;;;;;;5.30;4.53;;;20.00;92.20;;;;;;10024494;29;20261;-81
2022/09/29 09:46:55;;;;;;;5.20;4.45;;;20.20;92.00;;;;;;10082411;29;20299;-80
2022/09/29 09:52:09;;;;;;;5.22;4.72;;;20.10;92.40;;;;;;10124096;29;20291;-80
2022/09/29 09:57:46;;;;;;;5.03;4.53;;;19.80;93.10;;;;;;10126879;29;20263;-80
2022/09/29 10:02:54;;;;;;;4.90;4.40;;;19.70;92.30;;;;;;10126189;29;20235;-80
2022/09/29 10:07:57;;;;;;;5.18;4.68;;;19.70;93.70;;;;;;10126907;29;20244;-80
2022/09/29 10:13:04;;;;;;;5.00;4.20;;;19.90;93.00;;;;;;10126961;29;20316;-80
2022/09/29 10:18:16;;;;;;;4.45;4.05;;;19.90;92.80;;;;;;10126593;29;20274;-80
2022/09/29 10:23:25;;;;;;;5.22;4.55;;;20.10;92.50;;;;;;10110082;29;20691;-80
2022/09/29 10:28:36;;;;;;;4.13;3.72;;;20.10;92.40;;;;;;10109234;29;20318;-80
2022/09/29 10:33:47;;;;;;;4.07;3.70;;;20.10;92.20;;;;;;10104958;29;20259;-80
2022/09/29 10:38:51;;;;;;;4.35;3.95;;;20.20;91.80;;;;;;10125620;29;20303;-80
2022/09/29 10:43:54;;;;;;;4.50;3.85;;;20.20;92.00;;;;;;10123973;29;20679;-80
2022/09/29 10:49:17;;;;;;;4.75;4.35;;;20.20;91.90;;;;;;10105202;29;20326;-81
2022/09/29 10:54:24;;;;;;;4.40;4.00;;;20.20;91.90;;;;;;10125456;29;20311;-80
2022/09/29 10:59:27;;;;;;;4.75;4.28;;;20.10;92.10;;;;;;10125455;29;20236;-81
2022/09/29 11:04:35;;;;;;;4.72;4.30;;;20.10;92.20;;;;;;10126846;29;20295;-81
2022/09/29 11:09:43;;;;;;;5.18;4.00;;;20.10;92.30;;;;;;10126011;29;20240;-81
2022/09/29 11:14:45;;;;;;;4.30;3.90;;;20.10;92.10;;;;;;10132674;29;20818;-81
2022/09/29 11:19:50;;;;;;;3.83;3.53;;;20.10;92.20;;;;;;10114096;29;20240;-80
2022/09/29 11:25:22;;;;;;;3.78;3.38;;;20.20;92.00;;;;;;10099402;29;20688;-80
2022/09/29 11:30:43;;;;;;;4.80;4.18;;;19.90;92.50;;;;;;10130122;29;20682;-80
2022/09/29 11:36:10;;;;;;;16.80;9.13;;;19.90;91.10;;;;;;10127409;29;20259;-80
2022/09/29 11:41:31;;;;;;;9.10;5.40;;;19.70;84.20;;;;;;10129994;29;20655;-81
2022/09/29 11:46:56;;;;;;;5.07;4.55;;;19.50;90.70;;;;;;10131261;29;20315;-81
2022/09/29 11:52:16;;;;;;;4.50;4.10;;;19.30;92.40;;;;;;10130486;29;20236;-81
2022/09/29 11:57:37;;;;;;;5.07;3.55;;;19.60;93.00;;;;;;10111105;29;20259;-81
2022/09/29 12:03:13;;;;;;;7.50;5.32;;;19.90;93.70;;;;;;10127140;29;20267;-81
2022/09/29 12:08:40;;;;;;;4.15;3.80;;;18.40;98.40;;;;;;10127919;29;20283;-80
2022/09/29 12:13:55;;;;;;;5.93;5.15;;;19.60;97.50;;;;;;10112503;29;20256;-80
2022/09/29 12:19:10;;;;;;;4.63;4.10;;;19.80;94.50;;;;;;10126977;29;20288;-80
2022/09/29 12:24:19;;;;;;;4.43;3.25;;;19.70;93.20;;;;;;10122723;29;20290;-80
2022/09/29 12:29:47;;;;;;;4.40;3.78;;;20.10;93.10;;;;;;10112411;29;20670;-80
2022/09/29 12:34:58;;;;;;;3.43;3.13;;;20.20;93.20;;;;;;10110556;29;20307;-80
2022/09/29 12:40:13;;;;;;;6.03;5.47;;;20.20;94.00;;;;;;10109818;29;20671;-80
2022/09/29 12:45:45;;;;;;;4.32;3.90;;;19.90;90.90;;;;;;10117668;29;20303;-80
2022/09/29 12:51:09;;;;;;;4.50;4.10;;;19.70;97.20;;;;;;10117565;29;20244;-80
2022/09/29 12:56:24;;;;;;;6.25;4.65;;;20.10;97.00;;;;;;10105939;29;20271;-80
2022/09/29 13:01:31;;;;;;;3.92;3.63;;;19.90;97.70;;;;;;10107993;29;20268;-80
2022/09/29 13:07:10;;;;;;;4.72;4.32;;;19.90;97.90;;;;;;10126494;29;20248;-80
2022/09/29 13:12:39;;;;;;;5.38;4.97;;;19.80;99.80;;;;;;10106428;29;20240;-80
2022/09/29 13:17:53;;;;;;;4.82;4.43;;;19.50;98.30;;;;;;9979353;29;20313;-80
2022/09/29 13:23:12;;;;;;;4.80;4.40;;;20.10;99.90;;;;;;9982479;29;20825;-80
2022/09/29 13:28:40;;;;;;;4.57;4.20;;;20.40;99.60;;;;;;9986906;29;20348;-80
2022/09/29 13:33:52;;;;;;;4.75;4.35;;;20.20;99.90;;;;;;9977776;29;20267;-81
2022/09/29 13:38:57;;;;;;;5.20;4.72;;;19.50;99.90;;;;;;9984687;29;20295;-80
2022/09/29 13:44:03;;;;;;;6.43;4.43;;;19.70;99.90;;;;;;10001057;29;20753;-80
2022/09/29 13:49:11;;;;;;;6.43;3.75;;;19.40;98.10;;;;;;9991532;29;20323;-80
2022/09/29 13:54:41;;;;;;;5.80;4.60;;;19.60;96.20;;;;;;10100786;29;20255;-80
2022/09/29 13:59:54;;;;;;;5.07;4.53;;;19.80;95.10;;;;;;10125219;29;20302;-80
2022/09/29 14:05:00;;;;;;;5.03;3.72;;;19.60;93.60;;;;;;10145097;29;20304;-80
2022/09/29 14:10:22;;;;;;;4.30;3.45;;;19.90;94.80;;;;;;10109974;29;20292;-80
2022/09/29 14:15:27;;;;;;;4.07;3.70;;;20.00;94.20;;;;;;10148735;29;20258;-80
2022/09/29 14:20:36;;;;;;;4.35;3.95;;;20.00;94.10;;;;;;10146220;29;20358;-80
2022/09/29 14:25:42;;;;;;;6.80;6.13;;;19.90;94.40;;;;;;10131703;29;20246;-81
2022/09/29 14:30:51;;;;;;;7.90;6.03;;;19.60;92.70;;;;;;10141020;29;20243;-81
2022/09/29 14:35:59;;;;;;;36.07;7.20;;;19.10;88.10;;;;;;10140783;29;20348;-80
2022/09/29 14:41:23;;;;;;;36.00;6.57;;;19.40;90.10;;;;;;10119247;29;20271;-80
2022/09/29 14:52:22;;;;;;;35.08;9.88;;;20.60;87.70;;;;;;10132998;29;20235;-81
2022/09/29 14:58:04;;;;;;;26.90;8.93;;;21.00;87.70;;;;;;10116716;29;20315;-81
2022/09/29 15:03:07;;;;;;;25.30;9.48;;;21.40;87.40;;;;;;10134455;29;20227;-81
2022/09/29 15:08:35;;;;;;;22.33;10.73;;;21.60;88.00;;;;;;10109719;29;20237;-81
2022/09/29 15:13:37;;;;;;;28.48;10.88;;;18.60;99.90;;;;;;10096014;29;20253;-80
2022/09/29 15:19:19;;;;;;;23.88;9.73;;;20.90;94.30;;;;;;10080003;29;20260;-80
2022/09/29 15:24:48;;;;;;;17.98;9.45;;;21.50;93.00;;;;;;10124093;29;20299;-80
2022/09/29 15:29:55;;;;;;;20.83;11.18;;;21.70;92.90;;;;;;10133111;29;20303;-81
2022/09/29 15:35:04;;;;;;;15.68;9.38;;;21.80;93.10;;;;;;10113507;29;20252;-81
2022/09/29 15:40:14;;;;;;;22.25;11.05;;;21.80;93.60;;;;;;10130385;29;20288;-81
2022/09/29 15:45:27;;;;;;;19.05;11.68;;;21.80;94.00;;;;;;10095620;29;20637;-81
2022/09/29 15:50:30;;;;;;;13.88;9.18;;;21.80;94.50;;;;;;10122769;29;20670;-82
2022/09/29 15:55:33;;;;;;;15.45;9.30;;;21.50;92.80;;;;;;10132611;29;20670;-81
2022/09/29 16:00:36;;;;;;;16.98;9.75;;;21.50;93.20;;;;;;10131682;29;20200;-82
2022/09/29 16:05:42;;;;;;;13.60;9.40;;;21.60;93.70;;;;;;10132915;29;20236;-82
2022/09/29 16:10:53;;;;;;;11.98;10.73;;;21.60;94.00;;;;;;10133736;29;20613;-80
2022/09/29 16:16:01;;;;;;;12.77;10.32;;;21.70;94.40;;;;;;10115563;29;20312;-81
2022/09/29 16:21:11;;;;;;;16.40;10.63;;;21.70;94.90;;;;;;10133293;29;20295;-80
2022/09/29 16:26:52;;;;;;;13.10;9.65;;;21.60;95.40;;;;;;10117769;29;20296;-80
2022/09/29 16:31:56;;;;;;;13.27;10.95;;;21.60;96.00;;;;;;10092627;29;20236;-81
2022/09/29 16:37:13;;;;;;;13.43;10.10;;;21.60;96.40;;;;;;10129360;29;20284;-80
2022/09/29 16:42:24;;;;;;;11.77;10.40;;;21.50;96.90;;;;;;10131550;29;20294;-81
2022/09/29 16:47:31;;;;;;;14.43;10.57;;;21.50;97.30;;;;;;10129927;29;20269;-80
2022/09/29 16:52:45;;;;;;;16.38;11.13;;;21.40;97.60;;;;;;10112836;29;20723;-82
2022/09/29 16:57:50;;;;;;;29.77;15.00;;;;;;;;;;10131386;29;20303;-81
2022/09/29 17:02:56;;;;;;;40.80;19.43;;;9.30;99.90;;;;;;10130185;29;20235;-81
2022/09/29 17:08:04;;;;;;;37.00;22.57;;;8.40;99.90;;;;;;10131183;29;20227;-81
2022/09/29 17:13:15;;;;;;;36.17;23.27;;;;;;;;;;10113516;29;20272;-82
2022/09/29 17:18:19;;;;;;;38.97;23.57;;;7.60;99.90;;;;;;10113701;29;20251;-81
2022/09/29 17:23:23;;;;;;;71.87;35.50;;;7.50;99.90;;;;;;10129571;29;20594;-80
2022/09/29 17:28:26;;;;;;;85.13;39.13;;;7.50;99.90;;;;;;10128537;29;20698;-81
2022/09/29 17:33:29;;;;;;;78.20;39.70;;;7.30;99.90;;;;;;10111133;29;20683;-83
2022/09/29 17:38:32;;;;;;;84.73;42.90;;;7.00;99.90;;;;;;10129278;29;20283;-82
2022/09/29 17:43:35;;;;;;;84.47;41.77;;;7.00;99.90;;;;;;10112692;29;20688;-81
2022/09/29 17:48:37;;;;;;;81.17;39.80;;;6.80;99.90;;;;;;10112569;29;20239;-81
2022/09/29 17:53:40;;;;;;;65.73;30.73;;;6.60;99.90;;;;;;10110546;29;20264;-81
2022/09/29 17:58:42;;;;;;;53.00;27.47;;;6.50;99.90;;;;;;10111912;29;20323;-81
2022/09/29 18:03:45;;;;;;;57.77;27.77;;;;;;;;;;10110331;29;20688;-81
2022/09/29 18:08:51;;;;;;;56.20;29.30;;;6.50;99.90;;;;;;10129897;29;20236;-82
2022/09/29 18:13:55;;;;;;;56.03;28.80;;;6.30;99.90;;;;;;10131756;29;20231;-81
2022/09/29 18:18:57;;;;;;;64.37;35.43;;;6.20;99.90;;;;;;10136444;29;20619;-81
2022/09/29 18:24:01;;;;;;;71.37;36.80;;;6.20;99.90;;;;;;10137516;29;20243;-81
2022/09/29 18:29:14;;;;;;;70.87;41.53;;;6.00;99.90;;;;;;10101110;29;20317;-81
2022/09/29 18:34:19;;;;;;;69.47;38.63;;;5.90;99.90;;;;;;9793317;29;10000011;-80
2022/09/29 18:39:22;;;;;;;43.97;25.70;;;5.80;99.90;;;;;;10114321;29;20878;-80
2022/09/29 18:44:28;;;;;;;38.63;24.40;;;12.90;99.90;;;;;;10132053;29;20287;-80
2022/09/29 18:49:30;;;;;;;37.77;22.10;;;16.30;99.90;;;;;;10116452;29;20243;-80
2022/09/29 18:54:33;;;;;;;38.20;23.00;;;17.90;99.90;;;;;;10133437;29;20303;-80
2022/09/29 18:59:35;;;;;;;36.60;20.27;;;18.70;99.90;;;;;;10130819;29;20913;-81
2022/09/29 19:04:38;;;;;;;34.90;21.83;;;19.20;98.70;;;;;;10115312;29;20751;-80
2022/09/29 19:09:41;;;;;;;30.50;20.67;;;19.50;97.70;;;;;;10115759;29;20228;-80
2022/09/29 19:14:44;;;;;;;31.53;20.43;;;19.70;97.00;;;;;;10109981;29;20263;-81
2022/09/29 19:19:47;;;;;;;30.20;20.45;;;19.80;96.70;;;;;;10130385;29;20299;-81
2022/09/29 19:24:51;;;;;;;27.35;19.63;;;19.90;96.30;;;;;;10112922;29;20288;-82
2022/09/29 19:29:56;;;;;;;30.17;20.25;;;20.00;96.40;;;;;;10096777;29;20288;-81
2022/09/29 19:35:06;;;;;;;30.50;20.02;;;20.00;96.30;;;;;;10118097;29;20240;-81
2022/09/29 19:40:18;;;;;;;30.38;19.30;;;20.00;96.30;;;;;;10098774;29;20299;-80
2022/09/29 19:45:21;;;;;;;29.10;19.40;;;20.00;96.50;;;;;;10120808;29;20330;-82
2022/09/29 19:55:45;;;;;;;30.80;19.77;;;20.00;96.70;;;;;;10130763;29;20252;-81
2022/09/29 20:00:47;;;;;;;26.40;18.23;;;20.00;96.80;;;;;;10112373;29;20220;-81
2022/09/29 20:05:50;;;;;;;28.50;19.83;;;20.00;96.80;;;;;;10116183;29;20225;-81
2022/09/29 20:10:52;;;;;;;26.83;18.77;;;20.00;96.90;;;;;;10112986;29;21001;-81
2022/09/29 20:16:23;;;;;;;26.20;18.10;;;20.00;97.00;;;;;;10132282;29;21092;-81
2022/09/29 20:21:26;;;;;;;28.30;18.37;;;19.90;97.00;;;;;;10113701;29;20296;-82
2022/09/29 20:26:32;;;;;;;24.30;17.73;;;20.00;97.00;;;;;;10132436;29;20248;-81
2022/09/29 20:31:37;;;;;;;29.15;19.33;;;19.90;97.00;;;;;;10132096;29;20240;-81
2022/09/29 20:36:40;;;;;;;28.90;18.77;;;19.90;97.00;;;;;;10137348;29;20303;-81
2022/09/29 20:41:43;;;;;;;24.45;17.90;;;20.00;97.10;;;;;;10134680;29;20267;-82
2022/09/29 20:46:45;;;;;;;28.73;19.25;;;19.90;97.00;;;;;;10114045;29;20239;-81
2022/09/29 20:51:48;;;;;;;24.50;17.83;;;19.90;97.10;;;;;;10100038;29;20708;-80
2022/09/29 20:56:50;;;;;;;25.83;19.00;;;19.90;97.00;;;;;;10113631;29;20292;-81
2022/09/29 21:01:55;;;;;;;29.85;18.63;;;19.90;97.00;;;;;;10132045;29;20283;-80
2022/09/29 21:06:58;;;;;;;28.48;19.88;;;19.90;97.00;;;;;;10098038;29;20292;-82
2022/09/29 21:12:02;;;;;;;27.87;18.27;;;19.80;96.90;;;;;;10113154;29;20260;-81
2022/09/29 21:17:04;;;;;;;23.77;18.17;;;19.80;96.90;;;;;;10130138;29;20684;-82
2022/09/29 21:22:07;;;;;;;27.03;18.70;;;19.80;96.90;;;;;;10114521;29;20285;-84
2022/09/29 21:27:10;;;;;;;26.92;17.77;;;19.80;96.80;;;;;;10130314;29;20243;-82
2022/09/29 21:32:12;;;;;;;24.48;17.00;;;19.80;96.80;;;;;;10130245;29;20295;-82
2022/09/29 21:37:16;;;;;;;25.27;18.45;;;19.80;96.70;;;;;;10113382;29;20331;-82
2022/09/29 21:42:18;;;;;;;27.13;18.77;;;19.80;96.60;;;;;;10130314;29;20783;-83
2022/09/29 21:48:06;;;;;;;28.83;19.13;;;19.80;96.40;;;;;;10129285;29;20258;-82
2022/09/29 21:52:43;;;;;;;24.13;17.27;;;19.80;96.30;;;;;;10119145;29;20244;-83
2022/09/29 21:57:45;;;;;;;27.92;18.13;;;19.80;96.30;;;;;;10100044;29;20709;-82
2022/09/29 22:02:48;;;;;;;30.20;18.13;;;19.80;96.10;;;;;;10124829;29;20669;-82
2022/09/29 22:07:50;;;;;;;29.25;19.40;;;19.70;96.50;;;;;;10130081;29;20288;-82
2022/09/29 22:12:53;;;;;;;30.38;19.33;;;19.80;96.00;;;;;;10111308;29;20236;-82
2022/09/29 22:17:55;;;;;;;29.35;19.58;;;19.80;95.80;;;;;;10128441;29;20276;-82
2022/09/29 22:22:58;;;;;;;31.80;19.90;;;19.80;95.60;;;;;;10126672;29;20269;-82
2022/09/29 22:28:00;;;;;;;30.23;19.08;;;19.80;95.50;;;;;;10112936;29;20253;-81
2022/09/29 22:33:03;;;;;;;33.63;20.77;;;19.80;95.40;;;;;;10130204;29;20288;-82
2022/09/29 22:38:07;;;;;;;28.45;18.80;;;19.80;95.30;;;;;;10128689;29;20277;-81
2022/09/29 22:43:09;;;;;;;28.48;19.88;;;19.80;95.40;;;;;;10112925;29;20343;-81
2022/09/29 22:48:12;;;;;;;28.48;18.35;;;19.80;95.10;;;;;;10129524;29;20247;-82
2022/09/29 22:53:15;;;;;;;26.67;19.27;;;19.80;95.00;;;;;;10113177;29;20269;-81
2022/09/29 22:58:17;;;;;;;26.88;18.02;;;19.80;94.70;;;;;;10112058;29;20735;-82
2022/09/29 23:03:20;;;;;;;28.52;19.02;;;19.90;94.60;;;;;;10136487;29;20233;-81
2022/09/29 23:08:23;;;;;;;24.48;17.45;;;19.90;94.50;;;;;;10136918;29;20284;-81
2022/09/29 23:13:26;;;;;;;27.83;18.10;;;19.90;94.40;;;;;;10135430;29;20240;-82
2022/09/29 23:18:30;;;;;;;24.45;17.00;;;19.90;94.30;;;;;;10100653;29;20264;-81
2022/09/29 23:23:32;;;;;;;25.77;17.17;;;19.80;94.30;;;;;;10135267;29;20314;-81
2022/09/29 23:28:35;;;;;;;26.50;17.45;;;19.80;94.40;;;;;;10135885;29;20244;-81
2022/09/29 23:33:37;;;;;;;26.27;17.58;;;19.80;94.40;;;;;;10118945;29;20292;-81
2022/09/29 23:44:04;;;;;;;24.95;17.92;;;19.80;94.30;;;;;;10118204;29;20307;-81
2022/09/29 23:49:10;;;;;;;24.05;16.88;;;19.80;94.20;;;;;;10118924;29;20287;-81
2022/09/29 23:54:15;;;;;;;26.88;17.65;;;19.80;94.20;;;;;;10117218;29;20241;-81
2022/09/29 23:59:17;;;;;;;22.20;15.50;;;19.80;94.20;;;;;;10134606;29;20308;-82
